Terminal Aerodrome Forecast
Issued by NWS Louisville, KY

Home | Current Version | Previous Version | Text Only | Print | Product List | Glossary On
Versions: 1 2 3 4 5 6 7 8 9 10 11 12 13 14
000
FTUS43 KLMK 291724
TAFLEX
TAF
KLEX 291724Z 2918/3018 22006KT P6SM SCT040
     FM292200 22006KT P6SM VCSH SCT040
     FM300200 VRB03KT P6SM SCT050
     FM300900 34005KT P6SM FEW050
      TEMPO 3010/3013 5SM BR=

USA.gov is the U.S. government's official web portal to all federal, state and local government web resources and services.